Time;durP1;ratioP1;P1;durP2;ratioP2;P2;SDS_P1;SDS_P2;PMS_P1;PMS_P2;Temp;Humidity;BMP_temperature;BMP_pressure;BME280_temperature;BME280_humidity;BME280_pressure;Samples;Min_cycle;Max_cycle;Signal;HPM_P1;HPM_P2
2021/07/18 00:01:11;;;;;;;10.25;4.85;;;;;;;19.70;80.67;102467.31;4813035;29;20955;-38
2021/07/18 00:03:37;;;;;;;10.45;4.93;;;;;;;19.71;80.61;102468.97;4823700;29;20293;-38
2021/07/18 00:06:03;;;;;;;8.68;4.88;;;;;;;19.72;80.99;102470.69;4808929;29;20232;-38
2021/07/18 00:08:30;;;;;;;13.20;5.30;;;;;;;19.72;80.55;102468.84;4806565;29;20845;-38
2021/07/18 00:10:56;;;;;;;10.68;5.15;;;;;;;19.67;81.75;102470.31;4815853;29;20145;-38
2021/07/18 00:13:23;;;;;;;11.38;4.72;;;;;;;19.66;81.44;102460.63;4810697;29;20579;-38
2021/07/18 00:15:50;;;;;;;13.55;6.72;;;;;;;19.64;82.00;102467.97;4819251;29;20062;-38
2021/07/18 00:18:16;;;;;;;10.63;5.07;;;;;;;19.63;81.56;102467.13;4813724;29;20566;-38
2021/07/18 00:20:43;;;;;;;12.68;5.80;;;;;;;19.61;82.79;102465.66;4818275;29;20089;-38
2021/07/18 00:23:10;;;;;;;12.02;6.20;;;;;;;19.57;82.32;102462.47;4806431;29;20080;-38
2021/07/18 00:25:36;;;;;;;12.85;5.65;;;;;;;19.57;81.92;102462.47;4817625;29;20140;-38
2021/07/18 00:28:03;;;;;;;13.60;5.78;;;;;;;19.50;82.94;102462.34;4813502;29;20119;-38
2021/07/18 00:30:30;;;;;;;10.90;5.97;;;;;;;19.49;82.31;102455.31;4819265;29;20054;-38
2021/07/18 00:32:56;;;;;;;11.52;6.88;;;;;;;19.43;83.23;102463.16;4818227;29;20085;-38
2021/07/18 00:35:23;;;;;;;13.30;6.57;;;;;;;19.44;83.19;102454.97;4809665;29;20401;-38
2021/07/18 00:37:49;;;;;;;11.75;6.85;;;;;;;19.45;82.45;102456.66;4815099;29;20149;-38
2021/07/18 00:40:16;;;;;;;11.02;6.75;;;;;;;19.41;83.28;102463.31;4813443;29;20077;-38
2021/07/18 00:42:42;;;;;;;11.23;6.60;;;;;;;19.42;82.90;102456.16;4817020;29;20452;-38
2021/07/18 00:45:10;;;;;;;11.40;6.53;;;;;;;19.35;83.51;102451.50;4812914;29;20246;-38
2021/07/18 00:47:38;;;;;;;10.68;6.15;;;;;;;19.33;83.18;102453.50;4818795;29;20050;-38
2021/07/18 00:50:09;;;;;;;11.73;6.05;;;;;;;19.35;83.14;102445.34;4811800;29;20131;-38
2021/07/18 00:52:35;;;;;;;14.43;6.80;;;;;;;19.30;83.91;102456.47;4813943;29;20073;-38
2021/07/18 00:55:04;;;;;;;11.38;5.85;;;;;;;19.31;83.69;102458.16;4818854;29;20086;-38
2021/07/18 00:57:31;;;;;;;11.05;5.97;;;;;;;19.28;83.23;102449.66;4811968;29;20082;-38
2021/07/18 01:00:00;;;;;;;13.33;6.00;;;;;;;19.21;84.01;102448.63;4818557;29;20133;-38
2021/07/18 01:02:27;;;;;;;10.70;6.22;;;;;;;19.18;83.80;102441.81;4809940;29;20377;-38
2021/07/18 01:04:53;;;;;;;13.65;7.00;;;;;;;19.13;84.51;102444.13;4810658;29;20062;-38
2021/07/18 01:07:20;;;;;;;12.57;6.22;;;;;;;19.16;83.56;102443.81;4812202;29;20140;-38
2021/07/18 01:09:47;;;;;;;14.20;7.43;;;;;;;19.11;85.51;102446.13;4818700;29;20068;-38
2021/07/18 01:12:16;;;;;;;12.80;6.70;;;;;;;19.09;85.31;102446.31;4817386;29;20464;-38
2021/07/18 01:14:44;;;;;;;13.15;6.93;;;;;;;19.06;85.37;102445.81;4812803;29;20145;-38
2021/07/18 01:17:11;;;;;;;14.02;7.18;;;;;;;19.05;85.47;102454.75;4814150;29;20056;-38
2021/07/18 01:19:40;;;;;;;11.85;6.88;;;;;;;19.01;86.18;102443.63;4808322;29;20146;-38
2021/07/18 01:22:07;;;;;;;10.93;6.35;;;;;;;19.02;84.52;102439.97;4817560;29;20145;-38
2021/07/18 01:24:34;;;;;;;14.25;7.00;;;;;;;18.99;85.76;102436.81;4812649;29;20086;-37
2021/07/18 01:27:03;;;;;;;12.75;7.50;;;;;;;18.97;85.59;102442.28;4818110;29;20568;-37
2021/07/18 01:29:29;;;;;;;;;;;;;;;18.94;86.62;102437.31;4819873;29;20085;-37
2021/07/18 01:31:57;;;;;;;14.48;8.10;;;;;;;18.89;86.97;102428.97;4814599;29;19928;-38
2021/07/18 01:34:25;;;;;;;14.23;8.25;;;;;;;18.86;86.89;102434.63;4820707;29;20507;-38
2021/07/18 01:36:52;;;;;;;12.90;7.68;;;;;;;18.84;85.95;102434.78;4828315;29;20152;-38
2021/07/18 01:39:19;;;;;;;13.40;7.45;;;;;;;18.77;86.71;102437.19;4836430;29;20085;-38
2021/07/18 01:41:49;;;;;;;14.50;7.47;;;;;;;18.78;86.37;102430.91;4815219;29;20113;-38
2021/07/18 01:44:15;;;;;;;13.52;7.47;;;;;;;18.82;85.98;102430.59;4822286;29;20153;-38
2021/07/18 01:46:42;;;;;;;15.95;8.02;;;;;;;18.77;87.11;102423.91;4812865;29;20507;-38
2021/07/18 01:49:11;;;;;;;17.38;7.35;;;;;;;18.85;86.12;102428.44;4817603;29;20139;-38
2021/07/18 01:51:38;;;;;;;13.90;7.00;;;;;;;18.81;85.54;102418.31;4816573;29;20615;-38
2021/07/18 01:54:06;;;;;;;13.07;6.82;;;;;;;18.83;85.41;102425.13;4810793;29;20145;-38
2021/07/18 01:56:33;;;;;;;18.65;7.80;;;;;;;18.81;85.79;102428.94;4817883;29;20141;-38
2021/07/18 01:59:00;;;;;;;18.42;10.10;;;;;;;18.73;87.07;102427.88;4817642;29;20084;-38
2021/07/18 02:01:29;;;;;;;19.67;9.50;;;;;;;18.74;86.71;102431.41;4832010;29;20062;-38
2021/07/18 02:03:57;;;;;;;17.08;9.10;;;;;;;18.72;87.20;102441.38;4822346;29;20058;-38
2021/07/18 02:06:25;;;;;;;17.83;8.90;;;;;;;18.71;87.58;102439.69;4824219;29;20559;-38
2021/07/18 02:08:56;;;;;;;21.60;9.63;;;;;;;18.70;87.65;102433.53;4818330;29;20398;-38
2021/07/18 02:11:23;;;;;;;15.80;8.63;;;;;;;18.73;87.31;102438.53;4814674;29;20137;-38
2021/07/18 02:13:52;;;;;;;19.35;9.82;;;;;;;18.72;87.90;102436.06;4824172;29;20058;-38
2021/07/18 02:16:20;;;;;;;15.63;8.63;;;;;;;18.73;87.75;102440.34;4823941;29;20088;-38
2021/07/18 02:18:48;;;;;;;14.68;8.95;;;;;;;18.74;88.32;102434.06;4827778;29;20118;-38
2021/07/18 02:21:23;;;;;;;15.75;9.13;;;;;;;18.75;87.88;102430.41;4813430;29;20136;-38
2021/07/18 02:23:50;;;;;;;16.17;9.75;;;;;;;18.65;89.29;102430.53;4814129;29;20054;-38
2021/07/18 02:26:17;;;;;;;13.85;8.68;;;;;;;18.66;88.96;102426.88;4807745;29;20160;-38
2021/07/18 02:28:43;;;;;;;13.85;8.63;;;;;;;18.65;89.27;102419.91;4817901;29;20488;-38
2021/07/18 02:31:10;;;;;;;14.43;8.40;;;;;;;18.69;89.29;102423.06;4813944;29;20054;-38
2021/07/18 02:33:36;;;;;;;15.02;8.57;;;;;;;18.71;89.20;102421.09;4810185;29;20067;-38
2021/07/18 02:36:03;;;;;;;17.05;8.38;;;;;;;18.65;89.53;102419.06;4811308;29;20842;-38
2021/07/18 02:38:30;;;;;;;15.90;9.13;;;;;;;18.65;89.66;102419.06;4804912;29;20878;-38
2021/07/18 02:40:58;;;;;;;14.73;8.48;;;;;;;18.64;89.82;102423.56;4824858;29;20990;-38
2021/07/18 02:43:26;;;;;;;14.18;8.45;;;;;;;18.65;89.50;102416.41;4813130;29;20400;-38
2021/07/18 02:45:52;;;;;;;13.50;8.70;;;;;;;18.63;89.57;102419.22;4817080;29;20058;-38
2021/07/18 02:48:20;;;;;;;14.02;9.10;;;;;;;18.66;89.14;102421.56;4811017;29;20090;-38
2021/07/18 02:50:46;;;;;;;13.60;8.00;;;;;;;18.66;89.30;102418.06;4814001;29;20503;-38
2021/07/18 02:53:13;;;;;;;14.30;8.15;;;;;;;18.71;88.92;102426.41;4812559;29;20060;-38
2021/07/18 02:55:39;;;;;;;12.70;7.85;;;;;;;18.67;89.53;102417.91;4807821;29;20164;-38
2021/07/18 02:58:06;;;;;;;12.57;7.88;;;;;;;18.65;89.25;102422.56;4817111;29;20137;-38
2021/07/18 03:00:32;;;;;;;10.45;7.18;;;;;;;18.64;88.82;102420.91;4811477;29;20150;-38
2021/07/18 03:02:59;;;;;;;13.20;7.93;;;;;;;18.70;89.14;102416.75;4815675;29;20065;-38
2021/07/18 03:05:25;;;;;;;14.25;8.38;;;;;;;18.70;89.25;102425.56;4808124;29;20134;-38
2021/07/18 03:07:52;;;;;;;11.55;7.50;;;;;;;18.74;88.93;102421.59;4825315;29;20065;-38
2021/07/18 03:10:19;;;;;;;12.13;8.15;;;;;;;18.78;88.70;102419.44;4819870;29;20141;-38
2021/07/18 03:12:46;;;;;;;15.00;7.97;;;;;;;18.76;88.91;102419.59;4810742;29;20101;-38
2021/07/18 03:15:14;;;;;;;12.90;7.78;;;;;;;18.78;89.11;102412.31;4816667;29;20161;-38
2021/07/18 03:17:41;;;;;;;;;;;;;;;18.77;89.73;102413.28;4807886;29;20082;-38
2021/07/18 03:20:10;;;;;;;19.92;8.30;;;;;;;18.78;89.00;102412.31;4811912;29;20028;-38
2021/07/18 03:22:37;;;;;;;18.88;9.23;;;;;;;18.76;89.78;102410.81;4809628;29;20142;-37
2021/07/18 03:25:05;;;;;;;14.88;9.77;;;;;;;18.78;89.79;102414.13;4816190;29;20058;-37
2021/07/18 03:27:32;;;;;;;18.52;8.68;;;;;;;18.74;89.70;102413.63;4815772;29;20099;-37
2021/07/18 03:29:59;;;;;;;14.77;9.13;;;;;;;18.74;89.91;102404.81;4812268;29;20153;-37
2021/07/18 03:32:26;;;;;;;15.70;8.57;;;;;;;18.79;89.07;102405.16;4812454;29;20502;-37
2021/07/18 03:34:53;;;;;;;14.73;8.85;;;;;;;18.74;90.02;102395.00;4806506;29;20058;-37
2021/07/18 03:37:20;;;;;;;12.35;8.13;;;;;;;18.77;89.69;102405.31;4816812;29;20965;-37
2021/07/18 03:39:47;;;;;;;13.77;9.20;;;;;;;18.77;89.57;102402.66;4810675;29;20169;-37
2021/07/18 03:42:13;;;;;;;12.68;7.28;;;;;;;18.83;89.12;102405.69;4815413;29;20134;-37
2021/07/18 03:44:40;;;;;;;14.90;9.20;;;;;;;18.79;89.70;102407.81;4810467;29;20086;-38
2021/07/18 03:47:07;;;;;;;16.65;8.48;;;;;;;18.78;89.49;102404.31;4810021;29;20539;-38
2021/07/18 03:49:34;;;;;;;17.63;9.23;;;;;;;18.78;89.86;102408.81;4816178;29;20058;-38
2021/07/18 03:52:00;;;;;;;19.20;9.73;;;;;;;18.82;89.60;102407.53;4809960;29;20193;-38
2021/07/18 03:54:28;;;;;;;19.40;9.13;;;;;;;18.85;89.24;102409.03;4819569;29;20141;-38
2021/07/18 03:56:54;;;;;;;15.95;10.23;;;;;;;18.82;89.82;102407.53;4814319;29;20150;-38
2021/07/18 03:59:21;;;;;;;20.73;11.05;;;;;;;18.83;89.86;102411.84;4816362;29;20145;-38
2021/07/18 04:01:47;;;;;;;22.13;10.73;;;;;;;18.77;89.98;102410.63;4809576;29;20526;-38
2021/07/18 04:04:14;;;;;;;23.17;11.23;;;;;;;18.77;89.74;102415.13;4816301;29;20445;-38
2021/07/18 04:06:40;;;;;;;18.85;10.15;;;;;;;18.77;89.68;102415.13;4821788;29;20607;-38
2021/07/18 04:09:07;;;;;;;19.58;10.23;;;;;;;18.74;90.07;102415.44;4829873;29;20161;-38
2021/07/18 04:11:33;;;;;;;16.15;10.52;;;;;;;18.77;89.62;102410.63;4825106;29;20664;-38
2021/07/18 04:14:00;;;;;;;22.88;12.25;;;;;;;18.69;90.05;102415.91;4809326;29;20065;-38
2021/07/18 04:16:27;;;;;;;20.48;10.63;;;;;;;18.77;89.52;102415.13;4816515;29;20059;-38
2021/07/18 04:18:53;;;;;;;16.70;10.32;;;;;;;18.80;89.23;102417.50;4813629;29;20511;-38
2021/07/18 04:21:21;;;;;;;14.77;10.18;;;;;;;18.84;88.74;102415.34;4819235;29;20146;-38
2021/07/18 04:23:47;;;;;;;20.17;10.70;;;;;;;18.80;88.86;102416.63;4813793;29;20157;-38
2021/07/18 04:26:14;;;;;;;18.10;10.32;;;;;;;18.89;88.75;102407.69;4815486;29;20078;-38
2021/07/18 04:28:41;;;;;;;18.27;9.93;;;;;;;18.95;87.16;102407.91;4816863;29;20499;-38
2021/07/18 04:31:07;;;;;;;15.82;9.75;;;;;;;19.03;86.71;102401.72;4812388;29;20150;-38
2021/07/18 04:33:34;;;;;;;18.25;11.30;;;;;;;19.11;86.60;102400.91;4819303;29;20103;-38
2021/07/18 04:36:01;;;;;;;16.90;10.73;;;;;;;19.13;86.32;102407.75;4813146;29;20149;-38
2021/07/18 04:38:27;;;;;;;16.65;9.65;;;;;;;19.14;85.78;102395.28;4819348;29;20061;-38
2021/07/18 04:40:54;;;;;;;15.15;8.80;;;;;;;19.23;85.05;102409.41;4806162;29;20065;-38
2021/07/18 04:43:20;;;;;;;17.50;10.15;;;;;;;19.27;85.69;102405.44;4818180;29;20169;-38
2021/07/18 04:45:47;;;;;;;19.52;10.52;;;;;;;19.28;85.29;102410.56;4819307;29;20523;-38
2021/07/18 04:48:13;;;;;;;17.13;9.98;;;;;;;19.33;85.04;102418.91;4812822;29;20547;-38
2021/07/18 04:50:40;;;;;;;17.70;10.05;;;;;;;19.33;84.69;102413.59;4819068;29;20402;-38
2021/07/18 04:53:06;;;;;;;17.77;10.30;;;;;;;19.32;84.38;102411.06;4808609;29;20150;-38
2021/07/18 04:55:33;;;;;;;18.45;11.20;;;;;;;19.33;84.22;102413.59;4815499;29;20058;-38
2021/07/18 04:57:59;;;;;;;17.95;10.80;;;;;;;19.34;84.22;102415.22;4816706;29;20491;-38
2021/07/18 05:00:26;;;;;;;16.60;10.68;;;;;;;19.35;83.84;102410.75;4819094;29;20148;-38
2021/07/18 05:02:52;;;;;;;17.35;10.30;;;;;;;19.34;83.62;102414.41;4817771;29;20103;-38
2021/07/18 05:05:20;;;;;;;14.18;9.95;;;;;;;19.35;83.54;102414.25;4813421;29;20794;-38
2021/07/18 05:07:59;;;;;;;16.75;9.68;;;;;;;19.43;83.26;102417.91;4825648;29;20566;-38
2021/07/18 05:10:28;;;;;;;17.70;10.50;;;;;;;19.43;83.17;102418.75;4814870;29;20062;-38
2021/07/18 05:12:57;;;;;;;14.48;9.68;;;;;;;19.46;82.58;102413.06;4819240;29;20186;-38
2021/07/18 05:15:26;;;;;;;18.35;10.07;;;;;;;19.51;82.77;102425.91;4812947;29;20278;-38
2021/07/18 05:17:58;;;;;;;16.85;10.05;;;;;;;19.45;82.87;102418.59;4816917;29;20725;-38
2021/07/18 05:20:25;;;;;;;18.60;9.90;;;;;;;19.44;82.71;102411.59;4808948;29;20483;-38
2021/07/18 05:22:52;;;;;;;16.83;9.73;;;;;;;19.44;82.66;102415.06;4816921;29;20471;-38
2021/07/18 05:25:19;;;;;;;16.40;9.52;;;;;;;19.40;82.99;102416.41;4817643;29;20093;-38
2021/07/18 05:27:45;;;;;;;17.83;10.35;;;;;;;19.38;82.46;102414.91;4812318;29;20118;-38
2021/07/18 05:30:12;;;;;;;16.13;9.18;;;;;;;19.42;81.68;102409.06;4818162;29;20149;-38
2021/07/18 05:32:39;;;;;;;14.27;8.27;;;;;;;19.31;81.30;102412.91;4807899;29;20054;-38
2021/07/18 05:35:07;;;;;;;13.40;8.55;;;;;;;19.42;82.09;102411.75;4814120;29;20161;-38
2021/07/18 05:37:34;;;;;;;17.52;9.40;;;;;;;19.47;81.55;102411.25;4811432;29;20081;-38
2021/07/18 05:40:02;;;;;;;16.45;9.05;;;;;;;19.52;81.54;102409.78;4817731;29;20119;-38
2021/07/18 05:42:29;;;;;;;15.13;8.73;;;;;;;19.54;80.01;102414.91;4815690;29;20070;-38
2021/07/18 05:44:55;;;;;;;14.60;8.35;;;;;;;19.56;80.59;102405.78;4816524;29;20057;-38
2021/07/18 05:47:22;;;;;;;16.13;8.35;;;;;;;19.56;80.94;102411.09;4816905;29;20720;-38
2021/07/18 05:49:48;;;;;;;14.85;8.57;;;;;;;19.60;81.20;102411.59;4812256;29;20062;-38
2021/07/18 05:52:15;;;;;;;17.00;9.10;;;;;;;19.48;80.79;102403.13;4817388;29;20137;-38
2021/07/18 05:54:41;;;;;;;13.25;8.00;;;;;;;19.56;80.67;102404.91;4812415;29;20127;-38
2021/07/18 05:57:08;;;;;;;11.50;7.10;;;;;;;19.59;80.68;102406.44;4813852;29;20089;-38
2021/07/18 05:59:34;;;;;;;11.35;6.68;;;;;;;19.67;80.01;102403.75;4817086;29;20527;-38
2021/07/18 06:02:01;;;;;;;13.25;7.18;;;;;;;19.72;79.65;102407.63;4819877;29;20483;-38
2021/07/18 06:04:28;;;;;;;10.67;7.17;;;;;;;19.79;79.78;102412.25;4821685;29;20054;-38
2021/07/18 06:06:55;;;;;;;10.77;7.15;;;;;;;19.87;79.45;102418.38;4814270;29;20172;-38
2021/07/18 06:09:21;;;;;;;10.75;6.45;;;;;;;19.95;79.18;102406.88;4818862;29;20086;-38
2021/07/18 06:11:48;;;;;;;11.02;7.25;;;;;;;19.88;78.63;102413.91;4804142;29;20141;-38
2021/07/18 06:14:14;;;;;;;9.43;5.70;;;;;;;19.87;78.78;102405.06;4816790;29;20145;-38
2021/07/18 06:16:40;;;;;;;11.95;6.45;;;;;;;19.89;78.68;102410.25;4812456;29;20697;-38
2021/07/18 06:19:07;;;;;;;12.35;6.25;;;;;;;19.93;78.57;102415.06;4816938;29;20232;-38
2021/07/18 06:21:33;;;;;;;7.32;5.40;;;;;;;19.87;77.97;102413.06;4816876;29;20161;-38
2021/07/18 06:24:00;;;;;;;8.88;5.35;;;;;;;19.99;78.49;102413.53;4808433;29;20089;-38
2021/07/18 06:26:26;;;;;;;8.77;5.25;;;;;;;20.03;77.62;102414.88;4816311;29;20074;-38
2021/07/18 06:28:53;;;;;;;9.13;4.80;;;;;;;20.09;77.34;102405.34;4813835;29;20488;-38
2021/07/18 06:31:24;;;;;;;9.90;5.32;;;;;;;20.10;77.16;102401.72;4816661;29;20531;-38
2021/07/18 06:33:50;;;;;;;7.67;5.27;;;;;;;20.04;77.64;102413.88;4811233;29;20602;-38
2021/07/18 06:36:17;;;;;;;8.18;4.57;;;;;;;20.05;77.09;102409.38;4815565;29;20176;-38
2021/07/18 06:38:44;;;;;;;6.65;3.92;;;;;;;20.09;76.12;102406.22;4811814;29;20214;-38
2021/07/18 06:41:10;;;;;;;6.80;3.83;;;;;;;20.17;75.87;102408.03;4810018;29;20142;-38
2021/07/18 06:43:37;;;;;;;5.45;3.63;;;;;;;20.25;75.94;102413.31;4816794;29;20097;-38
2021/07/18 06:46:23;;;;;;;8.63;5.50;;;;;;;20.33;75.36;102413.28;4811398;29;20097;-38
2021/07/18 06:48:50;;;;;;;7.07;3.72;;;;;;;20.40;74.87;102415.25;4816706;29;20077;-38
2021/07/18 06:51:16;;;;;;;6.03;3.22;;;;;;;20.40;74.63;102412.59;4807587;29;20118;-38
2021/07/18 06:53:43;;;;;;;4.93;2.83;;;;;;;20.48;74.48;102413.41;4823147;29;20057;-38
2021/07/18 06:56:26;;;;;;;5.35;2.80;;;;;;;20.53;74.12;102419.03;4816010;29;20163;-38
2021/07/18 06:58:53;;;;;;;5.20;2.72;;;;;;;20.58;73.71;102417.66;4816591;29;20069;-38
2021/07/18 07:01:19;;;;;;;6.82;2.97;;;;;;;20.63;73.49;102426.00;4816359;29;20072;-38
2021/07/18 07:03:46;;;;;;;8.20;3.03;;;;;;;20.64;73.63;102420.50;4809617;29;20092;-39
2021/07/18 07:06:12;;;;;;;5.47;2.80;;;;;;;20.63;73.70;102418.84;4818732;29;20058;-38
2021/07/18 07:08:39;;;;;;;4.72;2.95;;;;;;;20.76;73.39;102412.09;4811259;29;20831;-38
2021/07/18 07:11:05;;;;;;;5.15;2.90;;;;;;;20.85;73.13;102424.38;4813310;29;20101;-38
2021/07/18 07:13:32;;;;;;;3.60;2.50;;;;;;;20.88;72.30;102416.06;4810941;29;20054;-38
2021/07/18 07:15:58;;;;;;;4.55;2.35;;;;;;;20.96;71.24;102420.50;4814219;29;20085;-37
2021/07/18 07:18:25;;;;;;;5.43;2.92;;;;;;;20.95;72.00;102427.66;4816185;29;20073;-37
2021/07/18 07:20:51;;;;;;;4.10;2.75;;;;;;;20.98;71.58;102423.81;4810478;29;20093;-37
2021/07/18 07:23:18;;;;;;;7.15;2.92;;;;;;;21.01;71.18;102415.44;4815785;29;20100;-37
2021/07/18 07:25:45;;;;;;;3.80;2.20;;;;;;;21.10;71.23;102425.06;4810943;29;20062;-37
2021/07/18 07:28:11;;;;;;;8.05;2.83;;;;;;;21.16;71.12;102421.69;4812847;29;20058;-37
2021/07/18 07:30:38;;;;;;;5.47;2.90;;;;;;;21.22;70.89;102420.16;4807231;29;20539;-37
2021/07/18 07:33:04;;;;;;;6.32;2.85;;;;;;;21.24;71.77;102423.47;4814939;29;20089;-37
2021/07/18 07:35:31;;;;;;;6.65;2.90;;;;;;;21.33;71.89;102419.75;4810227;29;20140;-37
2021/07/18 07:37:58;;;;;;;5.45;3.17;;;;;;;21.39;71.29;102413.69;4815843;29;20137;-37
2021/07/18 07:40:24;;;;;;;4.95;2.75;;;;;;;21.46;70.92;102411.13;4818810;29;20133;-37
2021/07/18 07:42:51;;;;;;;9.75;3.40;;;;;;;21.49;71.16;102414.28;4805878;29;20145;-38
2021/07/18 07:45:17;;;;;;;4.07;2.67;;;;;;;21.44;71.06;102410.50;4812738;29;20141;-38
2021/07/18 07:47:44;;;;;;;4.78;3.22;;;;;;;21.53;71.53;102410.25;4810249;29;20058;-38
2021/07/18 07:50:13;;;;;;;6.50;3.17;;;;;;;21.57;70.79;102413.38;4818758;29;20613;-38
2021/07/18 07:52:39;;;;;;;;;;;;;;;21.62;71.15;102413.69;4817977;29;20111;-38
2021/07/18 07:55:07;;;;;;;6.13;3.03;;;;;;;21.71;70.37;102411.75;4817354;29;19938;-38
2021/07/18 07:57:33;;;;;;;6.75;3.25;;;;;;;21.69;70.49;102408.44;4819521;29;20145;-38
2021/07/18 08:00:03;;;;;;;5.18;3.38;;;;;;;21.68;70.93;102412.13;4816728;29;20062;-38
2021/07/18 08:02:29;;;;;;;5.95;3.40;;;;;;;21.75;70.11;102406.88;4819030;29;20170;-38
2021/07/18 08:04:56;;;;;;;7.10;3.30;;;;;;;21.46;71.99;102409.31;4814177;29;20065;-38
2021/07/18 08:07:22;;;;;;;8.25;3.15;;;;;;;21.74;71.23;102411.41;4832922;29;20057;-38
2021/07/18 08:09:49;;;;;;;7.20;3.55;;;;;;;21.63;70.88;102404.66;4810176;29;20149;-38
2021/07/18 08:12:16;;;;;;;6.63;3.65;;;;;;;21.51;72.41;102403.44;4828059;29;20136;-38
2021/07/18 08:14:43;;;;;;;5.85;2.92;;;;;;;21.74;71.61;102395.38;4815610;29;20050;-37
2021/07/18 08:17:10;;;;;;;8.90;3.60;;;;;;;21.94;70.77;102398.34;4818415;29;20105;-38
2021/07/18 08:19:38;;;;;;;5.90;3.20;;;;;;;22.01;69.62;102387.72;4807901;29;20046;-37
2021/07/18 08:22:04;;;;;;;7.53;4.07;;;;;;;22.17;69.66;102387.56;4813374;29;20097;-38
2021/07/18 08:24:31;;;;;;;8.10;3.63;;;;;;;22.29;68.91;102391.44;4813022;29;20054;-38
2021/07/18 08:26:58;;;;;;;5.32;3.20;;;;;;;21.98;70.56;102393.47;4813648;29;20161;-38
2021/07/18 08:29:26;;;;;;;7.80;3.70;;;;;;;22.25;68.83;102384.00;4819167;29;20133;-38
2021/07/18 08:31:57;;;;;;;4.93;2.90;;;;;;;22.28;67.23;102394.28;4811712;29;20154;-38
2021/07/18 08:34:25;;;;;;;7.97;3.53;;;;;;;22.49;67.52;102386.31;4819261;29;20054;-38
2021/07/18 08:36:52;;;;;;;8.02;3.53;;;;;;;22.76;67.16;102388.47;4822936;29;20144;-38
2021/07/18 08:39:19;;;;;;;9.40;3.40;;;;;;;23.05;66.32;102388.41;4814672;29;20899;-38
2021/07/18 08:41:46;;;;;;;7.72;3.05;;;;;;;23.41;64.98;102376.75;4806443;29;20141;-38
2021/07/18 08:44:16;;;;;;;7.75;3.38;;;;;;;23.55;66.94;102379.53;4812231;29;20533;-38
2021/07/18 08:46:42;;;;;;;6.72;3.00;;;;;;;24.00;64.46;102382.75;4818271;29;20054;-38
2021/07/18 08:49:10;;;;;;;9.18;3.55;;;;;;;24.30;61.76;102380.59;4813106;29;20087;-38
2021/07/18 08:51:37;;;;;;;7.57;3.17;;;;;;;24.71;61.56;102376.22;4812612;29;20060;-38
2021/07/18 08:54:05;;;;;;;6.47;3.17;;;;;;;25.07;59.11;102383.94;4810328;29;20120;-38
2021/07/18 08:56:32;;;;;;;7.22;3.25;;;;;;;25.36;57.99;102380.00;4822676;29;20093;-38
2021/07/18 08:58:59;;;;;;;6.82;3.25;;;;;;;25.59;58.43;102378.75;4820125;29;20126;-38
2021/07/18 09:01:26;;;;;;;7.43;3.15;;;;;;;25.81;57.59;102374.78;4815215;29;20144;-38
2021/07/18 09:03:53;;;;;;;10.05;3.33;;;;;;;25.85;55.47;102384.09;4814505;29;20102;-38
2021/07/18 09:06:20;;;;;;;6.03;3.53;;;;;;;26.22;55.59;102376.31;4816626;29;20148;-38
2021/07/18 09:08:49;;;;;;;6.97;3.35;;;;;;;26.50;54.46;102369.81;4822608;29;20550;-38
2021/07/18 09:11:17;;;;;;;5.60;3.42;;;;;;;26.79;55.50;102372.94;4817531;29;20110;-38
2021/07/18 09:14:02;;;;;;;7.85;3.13;;;;;;;27.07;53.73;102377.94;4837310;29;20541;-38
2021/07/18 09:16:30;;;;;;;6.32;3.30;;;;;;;27.26;53.61;102369.94;4823203;29;20050;-38
2021/07/18 09:19:16;;;;;;;8.07;2.92;;;;;;;27.57;52.29;102374.41;4829671;29;20571;-38
2021/07/18 09:21:51;;;;;;;6.70;3.42;;;;;;;27.69;52.89;102371.78;4815380;29;20133;-39
2021/07/18 09:24:20;;;;;;;10.40;3.47;;;;;;;27.62;50.08;102371.88;4819840;29;20054;-38
2021/07/18 09:27:11;;;;;;;6.28;2.70;;;;;;;27.87;50.74;102377.19;4828365;29;20137;-38
2021/07/18 09:29:45;;;;;;;6.90;2.92;;;;;;;27.97;49.43;102372.13;4822605;29;20093;-38
2021/07/18 09:32:15;;;;;;;4.57;2.97;;;;;;;27.92;49.16;102373.84;4821202;29;20428;-38
2021/07/18 09:34:48;;;;;;;9.75;3.15;;;;;;;27.94;48.71;102364.50;4813419;29;20211;-38
2021/07/18 09:37:22;;;;;;;7.00;3.85;;;;;;;28.09;50.09;102369.50;4825643;29;20557;-38
2021/07/18 09:39:50;;;;;;;9.00;3.80;;;;;;;28.05;48.08;102367.47;4817959;29;20153;-37
2021/07/18 09:42:43;;;;;;;6.45;2.75;;;;;;;28.25;47.91;102357.25;4818880;29;21130;-37
2021/07/18 09:45:13;;;;;;;6.25;2.92;;;;;;;28.39;48.61;102357.91;4801565;29;20162;-38
2021/07/18 09:47:49;;;;;;;6.97;2.90;;;;;;;28.62;48.99;102368.00;4817467;29;20106;-38
2021/07/18 09:50:20;;;;;;;8.07;3.13;;;;;;;28.72;48.06;102364.75;4805309;29;20046;-38
2021/07/18 09:52:48;;;;;;;8.77;3.03;;;;;;;28.67;46.18;102361.91;4815452;29;20054;-39
2021/07/18 09:55:24;;;;;;;5.72;2.78;;;;;;;28.84;46.58;102357.47;4818206;29;20058;-38
2021/07/18 09:57:52;;;;;;;5.60;3.53;;;;;;;28.92;46.11;102353.63;4807443;29;20058;-39
2021/07/18 10:00:36;;;;;;;6.28;2.88;;;;;;;28.96;45.67;102352.91;4817742;29;20133;-39
2021/07/18 10:03:13;;;;;;;7.32;2.83;;;;;;;29.10;46.66;102348.09;4806923;29;20476;-38
2021/07/18 10:05:41;;;;;;;5.13;2.70;;;;;;;29.20;46.15;102347.56;4816470;29;20064;-38
2021/07/18 10:08:10;;;;;;;6.63;2.83;;;;;;;29.19;46.52;102335.13;4829859;29;20149;-38
2021/07/18 10:10:38;;;;;;;4.35;2.70;;;;;;;29.15;45.35;102339.34;4815551;29;20089;-37
2021/07/18 10:13:08;;;;;;;8.93;2.80;;;;;;;29.23;45.33;102341.69;4820837;29;20169;-37
2021/07/18 10:15:34;;;;;;;5.13;2.42;;;;;;;29.52;46.95;102337.22;4818332;29;20057;-37
2021/07/18 10:18:02;;;;;;;5.82;2.47;;;;;;;29.59;45.37;102328.97;4825951;29;20137;-37
2021/07/18 10:20:29;;;;;;;6.57;2.57;;;;;;;29.67;45.81;102344.00;4816124;29;20057;-37
2021/07/18 10:22:57;;;;;;;5.57;2.63;;;;;;;29.90;43.78;102341.25;4812194;29;20718;-37
2021/07/18 10:25:25;;;;;;;5.72;2.72;;;;;;;29.90;42.41;102335.84;4809567;29;20085;-37
2021/07/18 10:27:52;;;;;;;4.57;2.38;;;;;;;29.94;43.12;102328.91;4816997;29;20097;-37
2021/07/18 10:30:20;;;;;;;5.55;2.53;;;;;;;30.16;43.26;102336.34;4811415;29;20058;-37
2021/07/18 10:32:51;;;;;;;3.97;2.55;;;;;;;30.26;42.89;102330.31;4815509;29;20901;-37
2021/07/18 10:35:20;;;;;;;6.82;2.40;;;;;;;30.13;42.15;102336.84;4809024;29;20153;-37
2021/07/18 10:37:47;;;;;;;4.35;2.55;;;;;;;30.22;41.29;102329.97;4812962;29;20579;-37
2021/07/18 10:40:17;;;;;;;6.05;2.60;;;;;;;30.22;42.21;102327.25;4817151;29;20093;-37
2021/07/18 10:42:44;;;;;;;6.38;2.50;;;;;;;30.31;42.38;102330.44;4812123;29;20062;-37
2021/07/18 10:45:21;;;;;;;7.05;3.05;;;;;;;30.38;41.40;102330.28;4818087;29;20089;-37
2021/07/18 10:48:13;;;;;;;5.60;2.72;;;;;;;30.26;41.38;102325.69;4820307;29;20104;-38
2021/07/18 10:50:43;;;;;;;4.03;3.17;;;;;;;30.33;41.02;102328.31;4807033;29;20054;-37
2021/07/18 10:53:22;;;;;;;5.15;2.75;;;;;;;30.57;42.38;102320.88;4811081;29;20050;-37
2021/07/18 10:55:50;;;;;;;5.25;2.90;;;;;;;30.62;42.16;102322.81;4818855;29;20157;-37
2021/07/18 10:58:37;;;;;;;4.57;2.63;;;;;;;30.63;40.83;102321.78;4813811;29;20537;-37
2021/07/18 11:01:05;;;;;;;5.13;2.90;;;;;;;30.55;40.13;102317.59;4817069;29;20157;-37
2021/07/18 11:03:37;;;;;;;5.97;2.90;;;;;;;30.64;41.43;102316.13;4807601;29;20096;-37
2021/07/18 11:06:28;;;;;;;5.13;2.75;;;;;;;30.62;40.85;102317.41;4820357;29;20049;-37
2021/07/18 11:09:08;;;;;;;5.50;2.70;;;;;;;30.60;41.04;102312.28;4830721;29;20169;-37
2021/07/18 11:11:41;;;;;;;6.85;3.58;;;;;;;30.63;41.30;102309.06;4827171;29;20902;-38
2021/07/18 11:14:35;;;;;;;7.68;3.83;;;;;;;30.84;41.82;102310.22;4819381;29;20551;-36
2021/07/18 11:17:03;;;;;;;7.72;3.78;;;;;;;30.79;41.69;102304.69;4816876;29;20070;-37
2021/07/18 11:19:39;;;;;;;4.00;2.53;;;;;;;30.90;41.30;102305.72;4818100;29;20050;-37
2021/07/18 11:22:13;;;;;;;6.10;3.17;;;;;;;30.88;40.95;102303.22;4809331;29;20085;-37
2021/07/18 11:24:53;;;;;;;5.15;2.80;;;;;;;30.92;40.58;102295.47;4817047;29;20058;-37
2021/07/18 11:27:28;;;;;;;5.53;3.08;;;;;;;30.69;40.74;102299.13;4821197;29;20081;-37